createdAt,value
2023-05-14T00:02:55.793Z,102003.63
2023-05-14T00:06:57.753Z,102008.47
2023-05-14T00:10:59.590Z,101996.34
2023-05-14T00:15:01.751Z,101989.59
2023-05-14T00:19:03.996Z,101980.06
2023-05-14T00:23:06.004Z,101976.28
2023-05-14T00:27:07.946Z,101967.69
2023-05-14T00:31:09.780Z,101970.50
2023-05-14T00:35:11.651Z,101972.34
2023-05-14T00:39:14.527Z,101967.16
2023-05-14T00:43:16.378Z,101963.78
2023-05-14T00:47:18.430Z,101963.22
2023-05-14T00:51:20.425Z,101959.88
2023-05-14T00:55:22.987Z,101955.09
2023-05-14T00:59:24.784Z,101961.88
2023-05-14T01:03:27.031Z,101963.03
2023-05-14T01:07:44.859Z,101954.59
2023-05-14T01:11:49.745Z,101947.84
2023-05-14T01:15:54.903Z,101951.81
2023-05-14T01:19:57.974Z,101956.50
2023-05-14T01:24:00.267Z,101955.78
2023-05-14T01:28:13.956Z,101968.63
2023-05-14T01:32:17.819Z,101965.56
2023-05-14T01:36:19.754Z,101951.59
2023-05-14T01:40:24.050Z,101947.25
2023-05-14T01:44:26.417Z,101948.53
2023-05-14T01:48:30.201Z,101935.53
2023-05-14T01:52:32.040Z,101924.00
2023-05-14T01:56:33.893Z,101925.00
2023-05-14T02:00:35.815Z,101927.94
2023-05-14T02:04:37.702Z,101930.91
2023-05-14T02:08:39.585Z,101936.56
2023-05-14T02:12:41.480Z,101937.72
2023-05-14T02:16:43.359Z,101932.78
2023-05-14T02:20:45.329Z,101929.69
2023-05-14T02:24:47.267Z,101929.44
2023-05-14T02:28:49.168Z,101925.53
2023-05-14T02:32:51.316Z,101922.41
2023-05-14T02:36:53.321Z,101921.72
2023-05-14T02:40:55.111Z,101909.63
2023-05-14T02:44:56.958Z,101905.41
2023-05-14T02:48:59.119Z,101904.56
2023-05-14T02:53:01.923Z,101897.53
2023-05-14T02:57:03.862Z,101898.50
2023-05-14T03:01:05.868Z,101900.22
2023-05-14T03:05:09.679Z,101896.81
2023-05-14T03:09:11.574Z,101901.78
2023-05-14T03:13:14.681Z,101899.38
2023-05-14T03:17:16.499Z,101892.78
2023-05-14T03:21:18.489Z,101893.91
2023-05-14T03:25:20.396Z,101897.59
2023-05-14T03:29:22.193Z,101886.16
2023-05-14T03:33:24.084Z,101885.47
2023-05-14T03:37:26.119Z,101878.59
2023-05-14T03:41:27.904Z,101876.19
2023-05-14T03:45:30.568Z,101875.34
2023-05-14T03:49:34.048Z,101883.66
2023-05-14T03:53:36.356Z,101885.34
2023-05-14T03:57:38.352Z,101878.31
2023-05-14T04:01:40.127Z,101879.03
2023-05-14T04:05:41.921Z,101874.63
2023-05-14T04:09:44.075Z,101874.78
2023-05-14T04:13:46.998Z,101874.91
2023-05-14T04:17:48.841Z,101877.19
2023-05-14T04:21:50.853Z,101878.44
2023-05-14T04:25:52.649Z,101877.16
2023-05-14T04:29:54.763Z,101879.41
2023-05-14T04:33:56.546Z,101884.63
2023-05-14T04:37:58.464Z,101881.94
2023-05-14T04:42:00.270Z,101878.00
2023-05-14T04:46:02.445Z,101883.91
2023-05-14T04:50:04.914Z,101884.59
2023-05-14T04:54:06.904Z,101876.41
2023-05-14T04:58:08.781Z,101880.50
2023-05-14T05:02:10.617Z,101881.22
2023-05-14T05:06:12.520Z,101902.44
2023-05-14T05:10:14.397Z,101888.22
2023-05-14T05:14:16.160Z,101892.31
2023-05-14T05:18:18.010Z,101894.69
2023-05-14T05:22:20.393Z,101902.44
2023-05-14T05:26:25.043Z,101901.44
2023-05-14T05:30:27.017Z,101908.47
2023-05-14T05:34:28.871Z,101903.84
2023-05-14T05:38:30.734Z,101906.91
2023-05-14T05:42:32.627Z,101908.56
2023-05-14T05:46:34.507Z,101922.66
2023-05-14T05:50:36.289Z,101922.66
2023-05-14T05:54:40.025Z,101920.69
2023-05-14T05:58:41.917Z,101919.00
2023-05-14T06:02:44.289Z,101909.00
2023-05-14T06:06:46.264Z,101913.63
2023-05-14T06:10:48.144Z,101920.22
2023-05-14T06:14:49.984Z,101921.75
2023-05-14T06:18:52.986Z,101922.91
2023-05-14T06:22:54.846Z,101921.88
2023-05-14T06:26:56.658Z,101928.88
2023-05-14T06:30:58.536Z,101932.47
2023-05-14T06:35:00.383Z,101931.91
2023-05-14T06:39:02.292Z,101925.53
2023-05-14T06:43:06.500Z,101928.06
2023-05-14T06:47:08.745Z,101921.84
2023-05-14T06:51:11.125Z,101914.53
2023-05-14T06:55:12.904Z,101918.28
2023-05-14T06:59:14.725Z,101916.91
2023-05-14T07:03:16.574Z,101914.78
2023-05-14T07:07:20.821Z,101918.00
2023-05-14T07:11:23.250Z,101912.00
2023-05-14T07:15:25.059Z,101923.41
2023-05-14T07:19:28.861Z,101922.31
2023-05-14T07:23:30.854Z,101922.38
2023-05-14T07:27:34.924Z,101913.97
2023-05-14T07:31:36.785Z,101915.47
2023-05-14T07:35:38.757Z,101915.84
2023-05-14T07:39:41.853Z,101921.88
2023-05-14T07:43:43.805Z,101926.56
2023-05-14T07:47:45.740Z,101913.25
2023-05-14T07:51:47.582Z,101922.72
2023-05-14T07:55:49.524Z,101914.81
2023-05-14T07:59:51.482Z,101904.41
2023-05-14T08:03:53.347Z,101907.75
2023-05-14T08:07:55.267Z,101904.56
2023-05-14T08:11:57.103Z,101901.75
2023-05-14T08:15:59.146Z,101901.59
2023-05-14T08:20:00.929Z,101903.84
2023-05-14T08:24:02.820Z,101893.47
2023-05-14T08:28:05.112Z,101899.06
2023-05-14T08:32:19.277Z,101894.56
2023-05-14T08:36:24.301Z,101890.25
2023-05-14T08:40:27.199Z,101888.91
2023-05-14T08:44:53.710Z,101886.22
2023-05-14T08:49:00.757Z,101877.16
2023-05-14T08:53:02.755Z,101868.91
2023-05-14T08:57:05.212Z,101879.31
2023-05-14T09:01:07.073Z,101866.34
2023-05-14T09:05:09.583Z,101854.41
2023-05-14T09:09:11.897Z,101855.91
2023-05-14T09:13:13.709Z,101856.25
2023-05-14T09:17:16.848Z,101855.06
2023-05-14T09:21:18.968Z,101859.59
2023-05-14T09:25:20.909Z,101853.16
2023-05-14T09:29:30.006Z,101848.72
2023-05-14T09:33:31.927Z,101844.69
2023-05-14T09:37:36.697Z,101854.38
2023-05-14T09:41:38.542Z,101846.72
2023-05-14T09:45:41.087Z,101847.22
2023-05-14T09:49:42.876Z,101839.81
2023-05-14T09:53:44.788Z,101846.81
2023-05-14T09:57:46.684Z,101839.34
2023-05-14T10:01:50.145Z,101834.91
2023-05-14T10:05:52.692Z,101833.47
2023-05-14T10:10:01.967Z,101834.91
2023-05-14T10:14:09.418Z,101831.63
2023-05-14T10:18:14.603Z,101832.13
2023-05-14T10:22:19.013Z,101827.63
2023-05-14T10:26:23.225Z,101820.47
2023-05-14T10:30:26.212Z,101821.94
2023-05-14T10:34:45.389Z,101815.91
2023-05-14T10:38:47.453Z,101816.75
2023-05-14T10:42:49.986Z,101811.53
2023-05-14T10:46:52.527Z,101805.66
2023-05-14T10:50:56.438Z,101802.91
2023-05-14T10:55:03.127Z,101805.19
2023-05-14T10:59:06.951Z,101810.53
2023-05-14T11:03:08.961Z,101792.91
2023-05-14T11:07:10.890Z,101787.50
2023-05-14T11:11:12.920Z,101789.16
2023-05-14T11:15:18.401Z,101786.00
2023-05-14T11:19:21.904Z,101781.34
2023-05-14T11:23:25.825Z,101777.19
2023-05-14T11:27:27.807Z,101779.09
2023-05-14T11:31:29.713Z,101781.69
2023-05-14T11:35:32.658Z,101768.66
2023-05-14T11:39:37.652Z,101767.34
2023-05-14T11:43:39.496Z,101761.75
2023-05-14T11:47:42.934Z,101744.72
2023-05-14T11:51:44.935Z,101751.13
2023-05-14T11:55:47.873Z,101746.69
2023-05-14T11:59:59.080Z,101751.75
2023-05-14T12:04:00.990Z,101748.66
2023-05-14T12:08:02.843Z,101744.91
2023-05-14T12:12:10.274Z,101736.78
2023-05-14T12:16:12.226Z,101742.25
2023-05-14T12:20:14.178Z,101736.09
2023-05-14T12:24:18.716Z,101735.28
2023-05-14T12:28:20.840Z,101737.97
2023-05-14T12:32:25.608Z,101729.41
2023-05-14T12:36:27.460Z,101730.00
2023-05-14T12:40:29.816Z,101732.25
2023-05-14T12:44:31.725Z,101736.34
2023-05-14T12:48:33.600Z,101722.81
2023-05-14T12:52:39.395Z,101723.78
2023-05-14T12:56:41.966Z,101732.13
2023-05-14T13:00:43.856Z,101722.06
2023-05-14T13:04:45.938Z,101720.59
2023-05-14T13:08:47.818Z,101718.28
2023-05-14T13:12:50.772Z,101718.28
2023-05-14T13:16:52.655Z,101717.56
2023-05-14T13:20:54.493Z,101716.66
2023-05-14T13:24:56.324Z,101713.50
2023-05-14T13:28:58.208Z,101721.59
2023-05-14T13:33:00.295Z,101716.28
2023-05-14T13:37:02.253Z,101718.53
2023-05-14T13:41:04.289Z,101727.75
2023-05-14T13:45:06.781Z,101725.31
2023-05-14T13:49:08.587Z,101723.63
2023-05-14T13:53:10.459Z,101717.09
2023-05-14T13:57:12.288Z,101719.78
2023-05-14T14:01:14.155Z,101719.53
2023-05-14T14:05:16.251Z,101722.53
2023-05-14T14:09:18.212Z,101713.22
2023-05-14T14:13:21.452Z,101711.47
2023-05-14T14:17:23.278Z,101699.38
2023-05-14T14:21:25.104Z,101703.31
2023-05-14T14:25:26.951Z,101706.59
2023-05-14T14:29:31.324Z,101709.34
2023-05-14T14:33:33.163Z,101697.63
2023-05-14T14:37:34.972Z,101702.72
2023-05-14T14:41:36.952Z,101701.75
2023-05-14T14:45:38.815Z,101712.00
2023-05-14T14:49:40.632Z,101703.66
2023-05-14T14:53:42.558Z,101693.31
2023-05-14T14:57:44.458Z,101707.53
2023-05-14T15:01:46.407Z,101693.19
2023-05-14T15:05:48.861Z,101689.88
2023-05-14T15:09:50.863Z,101687.63
2023-05-14T15:13:52.734Z,101686.63
2023-05-14T15:17:54.688Z,101695.41
2023-05-14T15:21:56.548Z,101691.03
2023-05-14T15:25:58.356Z,101688.66
2023-05-14T15:30:00.182Z,101685.25
2023-05-14T15:34:02.040Z,101687.44
2023-05-14T15:38:04.072Z,101684.94
2023-05-14T15:42:07.662Z,101682.66
2023-05-14T15:46:09.728Z,101676.97
2023-05-14T15:50:11.949Z,101672.00
2023-05-14T15:54:13.920Z,101666.84
2023-05-14T15:58:15.886Z,101683.16
2023-05-14T16:02:17.935Z,101674.09
2023-05-14T16:06:19.807Z,101678.16
2023-05-14T16:10:22.148Z,101680.50
2023-05-14T16:14:24.172Z,101685.88
2023-05-14T16:18:26.553Z,101689.91
2023-05-14T16:22:29.608Z,101689.91
2023-05-14T16:26:31.505Z,101682.53
2023-05-14T16:30:33.412Z,101693.41
2023-05-14T16:34:35.291Z,101689.56
2023-05-14T16:38:44.613Z,101679.81
2023-05-14T16:42:54.457Z,101679.16
2023-05-14T16:46:56.493Z,101672.44
2023-05-14T16:50:59.664Z,101673.28
2023-05-14T16:55:01.500Z,101680.16
2023-05-14T16:59:03.523Z,101682.69
2023-05-14T17:03:06.768Z,101680.69
2023-05-14T17:07:08.689Z,101676.81
2023-05-14T17:11:10.580Z,101668.09
2023-05-14T17:15:12.458Z,101666.41
2023-05-14T17:19:14.342Z,101665.91
2023-05-14T17:23:17.293Z,101666.41
2023-05-14T17:27:19.105Z,101668.41
2023-05-14T17:31:22.397Z,101661.34
2023-05-14T17:35:24.497Z,101661.19
2023-05-14T17:39:26.659Z,101670.19
2023-05-14T17:43:28.519Z,101668.66
2023-05-14T17:47:30.509Z,101661.94
2023-05-14T17:51:32.377Z,101660.91
2023-05-14T17:55:40.074Z,101663.53
2023-05-14T17:59:41.903Z,101666.88
2023-05-14T18:03:43.827Z,101660.13
2023-05-14T18:07:45.896Z,101670.53
2023-05-14T18:11:47.718Z,101672.00
2023-05-14T18:15:51.713Z,101668.13
2023-05-14T18:19:53.566Z,101674.44
2023-05-14T18:23:55.437Z,101672.94
2023-05-14T18:27:57.310Z,101673.75
2023-05-14T18:31:59.098Z,101679.72
2023-05-14T18:36:01.720Z,101678.34
2023-05-14T18:40:04.907Z,101678.47
2023-05-14T18:44:06.815Z,101673.22
2023-05-14T18:48:10.235Z,101681.94
2023-05-14T18:52:12.057Z,101678.06
2023-05-14T18:56:13.964Z,101679.50
2023-05-14T19:00:16.221Z,101675.16
2023-05-14T19:04:18.095Z,101669.44
2023-05-14T19:08:19.978Z,101669.28
2023-05-14T19:12:21.818Z,101686.78
2023-05-14T19:16:24.378Z,101680.88
2023-05-14T19:20:26.382Z,101681.66
2023-05-14T19:24:28.187Z,101680.28
2023-05-14T19:28:30.138Z,101681.22
2023-05-14T19:32:31.985Z,101674.66
2023-05-14T19:36:33.946Z,101680.59
2023-05-14T19:40:35.789Z,101686.72
2023-05-14T19:44:37.699Z,101680.81
2023-05-14T19:48:39.557Z,101680.16
2023-05-14T19:52:41.467Z,101673.09
2023-05-14T19:56:43.296Z,101671.41
2023-05-14T20:00:47.495Z,101672.13
2023-05-14T20:04:55.682Z,101665.91
2023-05-14T20:08:57.516Z,101666.06
2023-05-14T20:12:59.602Z,101659.34
2023-05-14T20:17:01.988Z,101666.66
2023-05-14T20:21:04.125Z,101663.31
2023-05-14T20:25:07.206Z,101660.63
2023-05-14T20:29:11.169Z,101666.13
2023-05-14T20:33:13.932Z,101662.22
2023-05-14T20:37:15.839Z,101665.06
2023-05-14T20:41:17.617Z,101664.19
2023-05-14T20:45:19.597Z,101661.84
2023-05-14T20:49:21.405Z,101656.94
2023-05-14T20:53:23.559Z,101646.00
2023-05-14T20:57:25.882Z,101648.28
2023-05-14T21:01:27.823Z,101658.44
2023-05-14T21:05:29.738Z,101660.72
2023-05-14T21:09:31.885Z,101649.59
2023-05-14T21:13:33.890Z,101646.09
2023-05-14T21:17:35.756Z,101643.28
2023-05-14T21:21:37.774Z,101644.81
2023-05-14T21:25:39.655Z,101637.09
2023-05-14T21:29:41.588Z,101639.91
2023-05-14T21:33:43.402Z,101634.03
2023-05-14T21:37:45.299Z,101632.34
2023-05-14T21:41:47.167Z,101638.81
2023-05-14T21:45:49.222Z,101630.66
2023-05-14T21:49:51.037Z,101627.00
2023-05-14T21:53:52.843Z,101625.88
2023-05-14T21:57:54.782Z,101619.53
2023-05-14T22:02:06.791Z,101612.63
2023-05-14T22:06:09.066Z,101619.53
2023-05-14T22:10:14.533Z,101621.66
2023-05-14T22:14:16.378Z,101622.22
2023-05-14T22:18:18.452Z,101618.88
2023-05-14T22:22:20.454Z,101629.88
2023-05-14T22:26:22.310Z,101619.75
2023-05-14T22:30:24.205Z,101623.03
2023-05-14T22:34:26.079Z,101616.97
2023-05-14T22:38:27.882Z,101609.97
2023-05-14T22:42:29.789Z,101604.47
2023-05-14T22:46:31.743Z,101588.59
2023-05-14T22:50:33.826Z,101585.22
2023-05-14T22:54:36.530Z,101582.53
2023-05-14T22:58:38.355Z,101586.91
2023-05-14T23:02:40.344Z,101579.72
2023-05-14T23:06:42.249Z,101582.84
2023-05-14T23:10:44.016Z,101582.44
2023-05-14T23:14:46.165Z,101586.56
2023-05-14T23:18:48.213Z,101571.94
2023-05-14T23:22:50.102Z,101565.06
2023-05-14T23:26:51.930Z,101573.22
2023-05-14T23:30:53.785Z,101576.19
2023-05-14T23:34:55.868Z,101567.50
2023-05-14T23:38:58.910Z,101564.13
2023-05-14T23:43:01.189Z,101560.75
2023-05-14T23:47:03.202Z,101554.56
2023-05-14T23:51:05.081Z,101552.03
2023-05-14T23:55:07.180Z,101556.53
2023-05-14T23:59:09.093Z,101543.31
